createdAt,value
2022-08-03T00:01:30.011Z,2.60
2022-08-03T00:03:57.212Z,2.43
2022-08-03T00:06:24.091Z,2.60
2022-08-03T00:08:50.992Z,2.40
2022-08-03T00:11:17.937Z,2.87
2022-08-03T00:13:44.878Z,2.70
2022-08-03T00:16:12.125Z,2.97
2022-08-03T00:18:40.863Z,2.70
2022-08-03T00:21:07.995Z,2.67
2022-08-03T00:23:51.507Z,2.27
2022-08-03T00:26:20.551Z,2.90
2022-08-03T00:28:47.547Z,2.60
2022-08-03T00:31:14.704Z,2.37
2022-08-03T00:33:59.045Z,2.90
2022-08-03T00:36:28.000Z,2.77
2022-08-03T00:38:56.063Z,2.50
2022-08-03T00:41:23.258Z,2.70
2022-08-03T00:43:50.397Z,2.83
2022-08-03T00:46:21.363Z,2.70
2022-08-03T00:48:52.085Z,2.97
2022-08-03T00:51:23.170Z,2.70
2022-08-03T00:53:51.010Z,3.57
2022-08-03T00:56:18.474Z,2.90
2022-08-03T00:58:46.523Z,2.90
2022-08-03T01:01:14.075Z,2.67
2022-08-03T01:03:41.266Z,2.80
2022-08-03T01:06:18.456Z,2.93
2022-08-03T01:09:38.071Z,3.00
2022-08-03T01:12:15.994Z,3.10
2022-08-03T01:15:22.312Z,2.90
2022-08-03T01:17:56.477Z,2.70
2022-08-03T01:20:25.627Z,3.10
2022-08-03T01:23:13.130Z,2.83
2022-08-03T01:26:01.013Z,2.83
2022-08-03T01:28:53.215Z,3.37
2022-08-03T01:31:26.122Z,3.23
2022-08-03T01:34:04.402Z,3.33
2022-08-03T01:36:40.583Z,3.40
2022-08-03T01:39:11.597Z,3.00
2022-08-03T01:41:49.337Z,3.17
2022-08-03T01:44:29.261Z,3.30
2022-08-03T01:46:59.905Z,27.50
2022-08-03T01:49:30.392Z,17.73
2022-08-03T01:52:04.969Z,3.43
2022-08-03T01:54:40.535Z,2.87
2022-08-03T01:57:09.573Z,3.27
2022-08-03T01:59:37.640Z,3.00
2022-08-03T02:02:28.537Z,3.30
2022-08-03T02:04:58.306Z,3.27
2022-08-03T02:07:26.952Z,3.20
2022-08-03T02:09:55.608Z,3.50
2022-08-03T02:12:24.957Z,3.10
2022-08-03T02:14:52.042Z,2.80
2022-08-03T02:17:38.974Z,3.07
2022-08-03T02:20:12.258Z,3.13
2022-08-03T02:22:43.627Z,2.97
2022-08-03T02:25:12.952Z,3.60
2022-08-03T02:28:06.813Z,3.70
2022-08-03T02:30:39.352Z,3.63
2022-08-03T02:33:11.123Z,3.20
2022-08-03T02:35:40.866Z,3.53
2022-08-03T02:38:10.279Z,3.03
2022-08-03T02:40:40.876Z,3.17
2022-08-03T02:43:11.820Z,3.20
2022-08-03T02:45:45.597Z,3.23
2022-08-03T02:48:18.081Z,3.20
2022-08-03T02:50:47.432Z,3.33
2022-08-03T02:53:16.966Z,3.40
2022-08-03T02:55:45.758Z,3.37
2022-08-03T02:58:14.731Z,3.03
2022-08-03T03:00:44.129Z,3.60
2022-08-03T03:03:11.624Z,2.90
2022-08-03T03:05:52.635Z,3.27
2022-08-03T03:08:26.180Z,3.60
2022-08-03T03:10:57.284Z,3.10
2022-08-03T03:13:24.755Z,3.50
2022-08-03T03:15:54.432Z,3.70
2022-08-03T03:18:22.874Z,3.10
2022-08-03T03:20:52.654Z,3.40
2022-08-03T03:23:24.976Z,3.20
2022-08-03T03:25:52.839Z,2.93
2022-08-03T03:28:20.884Z,3.47
2022-08-03T03:30:52.678Z,3.83
2022-08-03T03:33:21.715Z,3.70
2022-08-03T03:35:49.063Z,3.30
2022-08-03T03:38:16.126Z,3.40
2022-08-03T03:40:43.556Z,3.20
2022-08-03T03:43:12.014Z,3.60
2022-08-03T03:45:42.054Z,3.60
2022-08-03T03:48:09.576Z,3.60
2022-08-03T03:50:37.752Z,3.63
2022-08-03T03:53:04.954Z,37.73
2022-08-03T03:55:36.806Z,8.47
2022-08-03T03:58:24.865Z,3.27
2022-08-03T04:00:53.918Z,3.57
2022-08-03T04:03:21.224Z,4.30
2022-08-03T04:06:06.944Z,3.77
2022-08-03T04:08:52.724Z,3.53
2022-08-03T04:11:36.817Z,3.77
2022-08-03T04:14:20.217Z,4.20
2022-08-03T04:16:51.767Z,3.87
2022-08-03T04:19:37.807Z,3.70
2022-08-03T04:22:10.876Z,4.27
2022-08-03T04:24:50.950Z,3.50
2022-08-03T04:27:23.474Z,3.40
2022-08-03T04:29:53.183Z,3.80
2022-08-03T04:32:21.352Z,3.73
2022-08-03T04:34:48.461Z,3.60
2022-08-03T04:37:23.405Z,4.00
2022-08-03T04:39:52.618Z,4.00
2022-08-03T04:42:24.690Z,3.97
2022-08-03T04:44:54.006Z,3.80
2022-08-03T04:47:22.955Z,3.57
2022-08-03T04:49:50.112Z,4.30
2022-08-03T04:52:17.667Z,4.10
2022-08-03T04:54:50.330Z,4.03
2022-08-03T04:57:22.182Z,3.90
2022-08-03T05:00:01.030Z,3.60
2022-08-03T05:02:28.886Z,3.80
2022-08-03T05:04:55.813Z,3.70
2022-08-03T05:07:25.081Z,3.83
2022-08-03T05:09:57.723Z,3.40
2022-08-03T05:12:32.941Z,3.70
2022-08-03T05:15:00.851Z,4.13
2022-08-03T05:17:28.725Z,4.00
2022-08-03T05:19:56.596Z,4.10
2022-08-03T05:22:23.979Z,3.90
2022-08-03T05:24:50.886Z,3.70
2022-08-03T05:27:19.514Z,4.63
2022-08-03T05:29:47.775Z,4.07
2022-08-03T05:32:15.127Z,4.33
2022-08-03T05:34:42.315Z,4.30
2022-08-03T05:37:09.784Z,4.17
2022-08-03T05:39:36.895Z,4.27
2022-08-03T05:42:04.317Z,4.20
2022-08-03T05:44:31.819Z,4.47
2022-08-03T05:46:59.449Z,4.60
2022-08-03T05:49:26.459Z,4.50
2022-08-03T05:52:00.159Z,4.80
2022-08-03T05:54:56.897Z,3.70
2022-08-03T05:57:25.277Z,3.40
2022-08-03T05:59:53.886Z,3.80
2022-08-03T06:02:26.214Z,3.70
2022-08-03T06:04:53.232Z,3.40
2022-08-03T06:07:20.204Z,3.50
2022-08-03T06:10:37.490Z,3.90
2022-08-03T06:12:36.289Z,4.00
2022-08-03T06:15:04.344Z,3.73
2022-08-03T06:17:37.245Z,3.57
2022-08-03T06:20:05.835Z,3.60
2022-08-03T06:22:32.719Z,3.80
2022-08-03T06:25:03.495Z,4.37
2022-08-03T06:27:36.680Z,3.90
2022-08-03T06:30:05.400Z,3.50
2022-08-03T06:32:32.429Z,3.80
2022-08-03T06:34:59.724Z,3.50
2022-08-03T06:37:27.244Z,3.67
2022-08-03T06:39:54.438Z,3.63
2022-08-03T06:42:22.684Z,3.23
2022-08-03T06:44:50.048Z,3.30
2022-08-03T06:47:17.359Z,3.03
2022-08-03T06:49:44.345Z,3.37
2022-08-03T06:52:38.280Z,3.30
2022-08-03T06:55:07.029Z,3.03
2022-08-03T06:57:33.923Z,3.00
2022-08-03T07:00:08.022Z,2.83
2022-08-03T07:02:38.792Z,3.30
2022-08-03T07:05:06.953Z,3.00
2022-08-03T07:07:34.040Z,3.17
2022-08-03T07:10:00.937Z,2.90
2022-08-03T07:12:30.006Z,3.30
2022-08-03T07:15:02.881Z,3.40
2022-08-03T07:17:31.863Z,3.20
2022-08-03T07:19:59.521Z,3.10
2022-08-03T07:22:26.789Z,3.00
2022-08-03T07:24:53.738Z,2.57
2022-08-03T07:27:20.654Z,2.67
2022-08-03T07:29:47.564Z,3.10
2022-08-03T07:32:14.786Z,3.13
2022-08-03T07:34:41.927Z,2.50
2022-08-03T07:37:08.871Z,3.10
2022-08-03T07:39:35.767Z,2.70
2022-08-03T07:42:02.607Z,2.40
2022-08-03T07:44:29.585Z,2.57
2022-08-03T07:46:57.333Z,2.83
2022-08-03T07:49:25.195Z,3.00
2022-08-03T07:52:12.116Z,2.83
2022-08-03T07:54:38.944Z,2.87
2022-08-03T07:57:05.871Z,2.60
2022-08-03T07:59:49.115Z,2.70
2022-08-03T08:02:20.053Z,2.30
2022-08-03T08:04:46.904Z,2.80
2022-08-03T08:07:13.818Z,2.87
2022-08-03T08:09:42.424Z,2.73
2022-08-03T08:12:14.973Z,2.70
2022-08-03T08:14:42.608Z,3.27
2022-08-03T08:17:09.480Z,2.73
2022-08-03T08:19:38.277Z,2.90
2022-08-03T08:22:09.640Z,2.80
2022-08-03T08:24:38.436Z,2.90
2022-08-03T08:27:06.439Z,2.67
2022-08-03T08:29:33.637Z,2.40
2022-08-03T08:32:01.735Z,2.60
2022-08-03T08:34:28.598Z,2.57
2022-08-03T08:36:59.588Z,2.73
2022-08-03T08:39:26.502Z,2.23
2022-08-03T08:41:53.504Z,2.30
2022-08-03T08:44:20.427Z,2.50
2022-08-03T08:46:48.229Z,2.50
2022-08-03T08:49:18.958Z,2.80
2022-08-03T08:51:59.166Z,2.77
2022-08-03T08:54:29.825Z,2.70
2022-08-03T08:56:59.407Z,2.93
2022-08-03T08:59:26.690Z,2.90
2022-08-03T09:02:13.906Z,3.40
2022-08-03T09:04:40.846Z,2.63
2022-08-03T09:07:19.699Z,2.73
2022-08-03T09:10:05.940Z,2.73
2022-08-03T09:12:45.410Z,2.83
2022-08-03T09:15:31.334Z,2.70
2022-08-03T09:18:00.837Z,2.63
2022-08-03T09:20:30.684Z,2.70
2022-08-03T09:23:08.979Z,2.77
2022-08-03T09:25:46.085Z,2.57
2022-08-03T09:28:59.799Z,2.37
2022-08-03T09:31:02.654Z,2.03
2022-08-03T09:33:36.030Z,2.37
2022-08-03T09:36:03.284Z,2.70
2022-08-03T09:38:30.199Z,2.47
2022-08-03T09:41:00.441Z,2.30
2022-08-03T09:43:28.482Z,2.60
2022-08-03T09:46:07.550Z,2.40
2022-08-03T09:48:36.805Z,2.07
2022-08-03T09:51:13.075Z,2.07
2022-08-03T09:53:57.053Z,2.00
2022-08-03T09:56:41.932Z,2.03
2022-08-03T09:59:09.860Z,2.10
2022-08-03T10:01:37.505Z,2.60
2022-08-03T10:04:05.335Z,2.03
2022-08-03T10:06:32.639Z,2.23
2022-08-03T10:09:07.384Z,1.80
2022-08-03T10:11:41.809Z,2.27
2022-08-03T10:14:11.691Z,2.27
2022-08-03T10:16:40.289Z,2.10
2022-08-03T10:19:08.498Z,1.90
2022-08-03T10:21:38.384Z,2.10
2022-08-03T10:24:10.864Z,1.87
2022-08-03T10:26:40.089Z,2.30
2022-08-03T10:29:22.651Z,2.30
2022-08-03T10:31:57.834Z,2.20
2022-08-03T10:34:27.574Z,2.20
2022-08-03T10:36:58.826Z,2.10
2022-08-03T10:39:29.690Z,2.10
2022-08-03T10:41:59.824Z,1.97
2022-08-03T10:44:33.437Z,1.70
2022-08-03T10:47:02.012Z,2.23
2022-08-03T10:49:34.557Z,1.70
2022-08-03T10:52:13.685Z,1.60
2022-08-03T10:55:10.000Z,1.60
2022-08-03T10:57:48.982Z,1.90
2022-08-03T11:00:25.222Z,1.50
2022-08-03T11:03:10.101Z,1.63
2022-08-03T11:05:44.358Z,1.65
2022-08-03T11:08:31.705Z,1.40
2022-08-03T11:11:18.273Z,1.45
2022-08-03T11:14:03.315Z,1.42
2022-08-03T11:16:39.173Z,1.33
2022-08-03T11:19:09.219Z,1.60
2022-08-03T11:21:51.372Z,1.40
2022-08-03T11:24:36.837Z,1.50
2022-08-03T11:27:19.029Z,1.50
2022-08-03T11:29:58.776Z,1.30
2022-08-03T11:32:40.585Z,1.00
2022-08-03T11:35:15.114Z,1.40
2022-08-03T11:38:03.234Z,1.27
2022-08-03T11:40:43.348Z,1.40
2022-08-03T11:43:22.480Z,1.33
2022-08-03T11:46:13.710Z,1.38
2022-08-03T11:49:05.342Z,1.23
2022-08-03T11:51:37.983Z,1.10
2022-08-03T11:54:07.013Z,1.17
2022-08-03T11:56:47.159Z,1.13
2022-08-03T11:59:20.122Z,1.00
2022-08-03T12:01:48.473Z,1.00
2022-08-03T12:04:16.473Z,1.00
2022-08-03T12:06:59.302Z,1.00
2022-08-03T12:09:26.204Z,1.00
2022-08-03T12:11:59.444Z,1.00
2022-08-03T12:14:50.917Z,1.00
2022-08-03T12:17:16.183Z,0.80
2022-08-03T12:19:43.592Z,0.70
2022-08-03T12:22:10.633Z,0.90
2022-08-03T12:24:42.500Z,0.90
2022-08-03T12:27:09.746Z,0.80
2022-08-03T12:29:36.970Z,0.90
2022-08-03T12:32:04.017Z,0.90
2022-08-03T12:35:06.012Z,1.20
2022-08-03T12:37:33.200Z,0.80
2022-08-03T12:40:09.543Z,0.80
2022-08-03T12:42:39.476Z,0.80
2022-08-03T12:45:25.989Z,0.90
2022-08-03T12:47:59.119Z,0.93
2022-08-03T12:50:32.237Z,0.80
2022-08-03T12:53:00.699Z,0.80
2022-08-03T12:55:56.603Z,0.80
2022-08-03T12:58:34.245Z,0.70
2022-08-03T13:01:05.275Z,0.75
2022-08-03T13:03:52.703Z,0.70
2022-08-03T13:06:28.795Z,0.70
2022-08-03T13:09:06.948Z,0.70
2022-08-03T13:11:55.929Z,0.70
2022-08-03T13:14:23.769Z,0.70
2022-08-03T13:16:51.014Z,0.70
2022-08-03T13:19:18.001Z,0.85
2022-08-03T13:22:01.851Z,0.88
2022-08-03T13:24:32.450Z,1.20
2022-08-03T13:27:00.174Z,0.95
2022-08-03T13:29:27.070Z,0.90
2022-08-03T13:31:54.073Z,0.85
2022-08-03T13:34:23.618Z,0.98
2022-08-03T13:37:10.310Z,0.90
2022-08-03T13:39:58.024Z,0.95
2022-08-03T13:42:25.490Z,0.98
2022-08-03T13:44:52.453Z,13.63
2022-08-03T13:47:20.135Z,9.38
2022-08-03T13:49:59.610Z,10.00
2022-08-03T13:52:33.554Z,3.05
2022-08-03T13:55:01.610Z,6.20
2022-08-03T13:58:05.802Z,4.43
2022-08-03T14:00:26.217Z,0.90
2022-08-03T14:03:01.926Z,4.30
2022-08-03T14:05:34.576Z,1.65
2022-08-03T14:08:04.527Z,1.00
2022-08-03T14:10:33.536Z,1.38
2022-08-03T14:13:00.608Z,1.25
2022-08-03T14:15:28.707Z,0.90
2022-08-03T14:17:58.700Z,1.17
2022-08-03T14:20:37.339Z,1.00
2022-08-03T14:23:07.001Z,1.20
2022-08-03T14:25:43.470Z,1.02
2022-08-03T14:28:18.663Z,1.10
2022-08-03T14:30:46.183Z,1.20
2022-08-03T14:33:13.198Z,1.10
2022-08-03T14:35:40.449Z,1.20
2022-08-03T14:38:07.507Z,1.38
2022-08-03T14:40:34.413Z,1.20
2022-08-03T14:43:02.488Z,1.00
2022-08-03T14:45:29.461Z,1.20
2022-08-03T14:50:33.158Z,1.30
2022-08-03T14:50:50.129Z,1.20
2022-08-03T14:53:18.238Z,1.48
2022-08-03T14:55:50.042Z,1.25
2022-08-03T14:58:23.179Z,1.42
2022-08-03T15:00:51.929Z,1.50
2022-08-03T15:03:23.138Z,1.23
2022-08-03T15:05:51.728Z,1.38
2022-08-03T15:08:18.965Z,1.50
2022-08-03T15:10:45.912Z,1.27
2022-08-03T15:13:16.597Z,1.40
2022-08-03T15:15:43.586Z,1.40
2022-08-03T15:18:10.614Z,1.40
2022-08-03T15:20:46.701Z,1.33
2022-08-03T15:23:15.024Z,1.23
2022-08-03T15:26:07.092Z,1.52
2022-08-03T15:28:30.304Z,1.20
2022-08-03T15:30:57.296Z,1.30
2022-08-03T15:33:24.468Z,1.40
2022-08-03T15:35:51.797Z,1.60
2022-08-03T15:38:19.242Z,1.20
2022-08-03T15:40:46.331Z,1.38
2022-08-03T15:43:13.346Z,1.58
2022-08-03T15:45:42.195Z,1.50
2022-08-03T15:48:09.371Z,1.48
2022-08-03T15:50:36.394Z,1.50
2022-08-03T15:53:04.105Z,1.40
2022-08-03T15:55:31.626Z,1.60
2022-08-03T15:59:04.172Z,1.60
2022-08-03T16:00:45.855Z,1.48
2022-08-03T16:03:12.825Z,1.55
2022-08-03T16:05:39.885Z,1.60
2022-08-03T16:08:11.678Z,1.52
2022-08-03T16:10:40.965Z,5.65
2022-08-03T16:13:08.283Z,2.17
2022-08-03T16:15:38.726Z,1.65
2022-08-03T16:18:09.503Z,1.70
2022-08-03T16:20:36.636Z,1.10
2022-08-03T16:23:10.656Z,2.15
2022-08-03T16:25:40.280Z,1.50
2022-08-03T16:28:13.609Z,1.60
2022-08-03T16:30:43.647Z,1.65
2022-08-03T16:33:11.836Z,1.40
2022-08-03T16:35:45.301Z,11.13
2022-08-03T16:38:18.190Z,3.00
2022-08-03T16:40:47.169Z,3.50
2022-08-03T16:43:18.339Z,8.23
2022-08-03T16:45:47.129Z,6.78
2022-08-03T16:48:15.406Z,2.00
2022-08-03T16:50:44.299Z,2.10
2022-08-03T16:53:16.342Z,1.50
2022-08-03T16:55:51.809Z,1.65
2022-08-03T16:58:34.342Z,2.33
2022-08-03T17:01:22.121Z,2.03
2022-08-03T17:04:02.986Z,1.48
2022-08-03T17:06:35.630Z,1.77
2022-08-03T17:09:09.186Z,1.65
2022-08-03T17:11:46.891Z,1.88
2022-08-03T17:14:21.981Z,1.80
2022-08-03T17:16:52.791Z,1.45
2022-08-03T17:19:25.290Z,1.55
2022-08-03T17:22:08.913Z,1.70
2022-08-03T17:24:40.949Z,1.90
2022-08-03T17:27:18.573Z,1.67
2022-08-03T17:30:09.047Z,1.63
2022-08-03T17:32:42.447Z,1.75
2022-08-03T17:35:10.843Z,1.83
2022-08-03T17:37:58.575Z,1.75
2022-08-03T17:40:25.472Z,1.83
2022-08-03T17:42:53.262Z,1.70
2022-08-03T17:45:20.581Z,1.77
2022-08-03T17:47:57.149Z,1.80
2022-08-03T17:50:37.030Z,1.85
2022-08-03T17:53:15.705Z,2.10
2022-08-03T17:56:42.555Z,1.93
2022-08-03T17:59:51.472Z,16.45
2022-08-03T18:02:52.260Z,23.90
2022-08-03T18:05:21.699Z,32.60
2022-08-03T18:07:59.215Z,20.20
2022-08-03T18:10:34.039Z,15.60
2022-08-03T18:13:14.512Z,1.90
2022-08-03T18:15:53.402Z,8.80
2022-08-03T18:18:29.302Z,3.83
2022-08-03T18:21:06.527Z,3.10
2022-08-03T18:23:37.759Z,2.60
2022-08-03T18:26:14.340Z,2.33
2022-08-03T18:28:43.227Z,3.00
2022-08-03T18:31:12.838Z,2.90
2022-08-03T18:34:16.481Z,2.60
2022-08-03T18:36:48.618Z,2.60
2022-08-03T18:39:15.886Z,10.47
2022-08-03T18:41:46.774Z,26.83
2022-08-03T18:44:37.702Z,30.33
2022-08-03T18:47:16.535Z,21.53
2022-08-03T18:50:03.676Z,15.17
2022-08-03T18:52:45.957Z,9.50
2022-08-03T18:55:33.614Z,8.77
2022-08-03T18:58:17.899Z,6.40
2022-08-03T19:01:03.360Z,5.20
2022-08-03T19:06:16.016Z,5.00
2022-08-03T19:09:20.297Z,4.07
2022-08-03T19:12:14.066Z,3.20
2022-08-03T19:14:53.473Z,2.73
2022-08-03T19:17:22.127Z,2.60
2022-08-03T19:19:58.507Z,2.90
2022-08-03T19:22:28.530Z,2.87
2022-08-03T19:25:03.906Z,2.40
2022-08-03T19:27:32.297Z,2.40
2022-08-03T19:30:08.241Z,3.20
2022-08-03T19:32:41.690Z,2.43
2022-08-03T19:35:18.957Z,2.37
2022-08-03T19:37:46.696Z,2.23
2022-08-03T19:40:14.141Z,2.33
2022-08-03T19:42:49.952Z,2.40
2022-08-03T19:46:04.403Z,2.03
2022-08-03T19:48:15.174Z,2.20
2022-08-03T19:50:44.380Z,2.10
2022-08-03T19:53:13.208Z,2.20
2022-08-03T19:55:48.967Z,2.50
2022-08-03T19:58:17.808Z,2.70
2022-08-03T20:00:56.074Z,2.13
2022-08-03T20:03:23.462Z,2.50
2022-08-03T20:05:55.049Z,2.40
2022-08-03T20:08:22.611Z,2.70
2022-08-03T20:10:50.045Z,2.97
2022-08-03T20:13:19.474Z,41.07
2022-08-03T20:15:46.828Z,27.50
2022-08-03T20:18:16.887Z,2.70
2022-08-03T20:20:48.085Z,3.00
2022-08-03T20:23:18.367Z,2.80
2022-08-03T20:25:57.272Z,2.87
2022-08-03T20:28:50.115Z,2.83
2022-08-03T20:31:18.928Z,3.40
2022-08-03T20:33:49.178Z,3.60
2022-08-03T20:39:07.514Z,2.73
2022-08-03T20:41:35.450Z,2.77
2022-08-03T20:44:04.496Z,3.00
2022-08-03T20:46:46.502Z,3.40
2022-08-03T20:49:23.489Z,3.40
2022-08-03T20:51:52.698Z,3.10
2022-08-03T20:54:38.774Z,3.00
2022-08-03T20:57:09.539Z,5.77
2022-08-03T20:59:50.014Z,16.93
2022-08-03T21:02:28.894Z,15.43
2022-08-03T21:04:56.353Z,3.50
2022-08-03T21:07:25.255Z,3.80
2022-08-03T21:10:15.420Z,3.30
2022-08-03T21:13:07.170Z,2.63
2022-08-03T21:13:17.401Z,2.90
2022-08-03T21:16:07.106Z,2.90
2022-08-03T21:18:50.079Z,3.17
2022-08-03T21:21:19.450Z,2.70
2022-08-03T21:23:50.240Z,2.63
2022-08-03T21:26:19.542Z,2.80
2022-08-03T21:28:51.066Z,3.00
2022-08-03T21:31:24.860Z,3.37
2022-08-03T21:33:55.210Z,3.07
2022-08-03T21:36:22.175Z,2.97
2022-08-03T21:38:56.278Z,2.90
2022-08-03T21:41:29.096Z,3.10
2022-08-03T21:43:56.280Z,3.17
2022-08-03T21:46:23.936Z,3.30
2022-08-03T21:48:56.545Z,2.70
2022-08-03T21:51:43.487Z,3.30
2022-08-03T21:54:12.152Z,3.20
2022-08-03T21:56:43.322Z,3.50
2022-08-03T21:59:17.269Z,3.40
2022-08-03T22:01:49.013Z,3.20
2022-08-03T22:04:55.097Z,3.50
2022-08-03T22:07:07.794Z,3.33
2022-08-03T22:09:35.496Z,3.23
2022-08-03T22:12:02.647Z,3.37
2022-08-03T22:14:32.252Z,3.10
2022-08-03T22:17:00.339Z,3.13
2022-08-03T22:19:27.425Z,2.90
2022-08-03T22:21:54.642Z,2.93
2022-08-03T22:24:23.957Z,3.10
2022-08-03T22:27:10.131Z,3.20
2022-08-03T22:29:39.143Z,3.00
2022-08-03T22:32:07.015Z,2.80
2022-08-03T22:34:34.460Z,2.77
2022-08-03T22:37:03.642Z,2.90
2022-08-03T22:39:31.875Z,3.03
2022-08-03T22:41:59.827Z,3.30
2022-08-03T22:44:27.941Z,3.07
2022-08-03T22:46:55.807Z,2.93
2022-08-03T22:49:22.928Z,2.90
2022-08-03T22:51:52.798Z,3.10
2022-08-03T22:54:19.871Z,2.67
2022-08-03T22:56:47.228Z,2.77
2022-08-03T22:59:41.379Z,3.10
2022-08-03T23:02:20.711Z,3.40
2022-08-03T23:05:02.074Z,3.27
2022-08-03T23:07:33.619Z,3.40
2022-08-03T23:10:03.907Z,3.33
2022-08-03T23:12:35.114Z,3.60
2022-08-03T23:15:03.891Z,3.43
2022-08-03T23:17:31.883Z,3.50
2022-08-03T23:20:06.311Z,3.33
2022-08-03T23:22:34.744Z,3.70
2022-08-03T23:25:04.012Z,3.30
2022-08-03T23:27:32.797Z,3.47
2022-08-03T23:30:01.372Z,3.30
2022-08-03T23:32:30.627Z,3.43
2022-08-03T23:35:19.733Z,3.50
2022-08-03T23:38:12.200Z,3.67
2022-08-03T23:40:37.090Z,3.37
2022-08-03T23:43:05.187Z,3.40
2022-08-03T23:45:36.380Z,3.80
2022-08-03T23:48:03.342Z,3.43
2022-08-03T23:50:37.767Z,3.47
2022-08-03T23:53:32.240Z,3.73
2022-08-03T23:56:44.937Z,3.37
2022-08-03T23:59:26.546Z,3.23
